• Join FlightAware (Why Join?)
  • Login
  • US Flag 
12:41PM EDT


 

Airport Tracker/Info


-or-


 

Live Flight TrackerFlight Track Log ✈ BJS542 ✈ 13-Aug-2013 ✈ KBTV - KDET

Flight Track Log - Related Links

Times and Time Zones

All times are in EDT time to prevent confusion due to time zone crossing. See the BJS542 flight status page for this flight to view local times or setup timezone preferences in your user account.

Time Position Orientation Groundspeed Altitude Reporting Facility
EDT Latitude Longitude Course Direction KTS MPH feet Rate Location/Type
04:06PM 44.3878 -73.2419 257° West 245 282 9,600  Level Boston Center
04:07PM 44.3744 -73.3492 260° West 259 298 13,000 3,120 Climbing Boston Center
04:08PM 44.3567 -73.4708 258° West 304 350 15,900 2,880 Climbing Boston Center
04:09PM 44.3389 -73.6039 259° West 336 387 18,700 2,400 Climbing Boston Center
04:10PM 44.3460 -73.8451 259° West  Level FlightAware Approximate
04:10PM 44.3206 -73.7400 259° West 356 410 20,700  Level Boston Center
04:11PM 44.3248 -73.9851 257° West  Level FlightAware Approximate
04:11PM 44.3003 -73.8789 259° West 366 421 22,300  Level Boston Center
04:12PM 44.3017 -74.1245 257° West  Level FlightAware Approximate
04:12PM 44.2797 -74.0203 259° West 371 427 24,300  Level Boston Center
04:13PM 44.2608 -74.1736 260° West 371 427 27,000 2,340 Climbing Boston Center
04:14PM 44.2397 -74.3178 258° West 371 427 29,100 1,980 Climbing Boston Center
04:15PM 44.2186 -74.4592 258° West 377 434 30,900 1,740 Climbing Boston Center
04:16PM 44.1992 -74.6061 260° West 377 434 32,600 1,500 Climbing Boston Center
04:17PM 44.1778 -74.7531 259° West 387 445 34,000 660 Climbing Boston Center
04:18PM 44.1578 -74.9056 260° West 393 452 34,000  Level Boston Center
04:19PM 44.1336 -75.0581 258° West 398 458 34,000  Level Boston Center
04:20PM 44.1114 -75.2044 258° West 398 458 34,000  Level Boston Center
04:21PM 44.0908 -75.3569 259° West 398 458 34,000  Level Boston Center
04:22PM 44.0661 -75.5058 257° West 403 464 34,000  Level Boston Center
04:23PM 44.0433 -75.6550 258° West 409 471 34,000  Level Boston Center
04:24PM 44.0203 -75.8067 258° West 409 471 34,000  Level Boston Center
04:25PM 43.9969 -75.9556 258° West 409 471 34,000  Level Boston Center
04:26PM 43.9739 -76.0986 257° West 404 465 34,000  Level Boston Center
04:27PM 43.9503 -76.2472 258° West 404 465 34,000  Level Boston Center
04:28PM 43.9267 -76.3928 257° West 399 459 34,000  Level Boston Center
04:29PM 43.9028 -76.5381 257° West 393 452 34,000  Level Boston Center
04:30PM 43.8667 -76.7000 253° West 390 449 34,000  Level Toronto Center
04:31PM 43.8333 -76.8333 251° West 390 449 34,000  Level Toronto Center
04:32PM 43.8000 -77.0000 255° West 380 437 34,000  Level Toronto Center
04:33PM 43.7833 -77.1333 260° West 380 437 34,000  Level Toronto Center
04:34PM 43.7500 -77.2833 253° West 380 437 34,000  Level Toronto Center
04:35PM 43.7333 -77.4167 260° West 390 449 34,000  Level Toronto Center
04:36PM 43.7167 -77.5500 260° West 380 437 34,000  Level Toronto Center
04:37PM 43.6833 -77.7167 255° West 380 437 34,000  Level Toronto Center
04:38PM 43.6667 -77.8500 260° West 380 437 34,000  Level Toronto Center
04:39PM 43.6333 -78.0000 253° West 380 437 34,000  Level Toronto Center
04:40PM 43.6000 -78.1333 251° West 380 437 34,000  Level Toronto Center
04:41PM 43.6039 -78.2528 273° West 381 438 34,000  Level Cleveland Center
04:42PM 43.5756 -78.4083 256° West 381 438 34,000 -420 Level Cleveland Center
04:43PM 43.5511 -78.5497 257° West 381 438 33,200 -540 Descending Cleveland Center
04:44PM 43.5242 -78.6881 255° West 381 438 33,000 -120 Descending Cleveland Center
04:45PM 43.4994 -78.8289 256° West 375 432 33,000  Level Cleveland Center
04:46PM 43.4722 -78.9672 255° West 375 432 33,000  Level Cleveland Center
04:47PM 43.4333 -79.1333 252° West 380 437 33,000  Level Toronto Center
04:48PM 43.4000 -79.2500 249° West 380 437 33,000  Level Toronto Center
04:49PM 43.3833 -79.4000 261° West 380 437 33,000  Level Toronto Center
04:50PM 43.3500 -79.5333 251° West 370 426 33,000 -660 Level Toronto Center
04:51PM 43.3167 -79.6833 253° West 380 437 31,700 -1,380 Descending Toronto Center
04:52PM 43.3000 -79.8167 260° West 380 437 30,300 -1,440 Descending Toronto Center
04:53PM 43.2667 -79.9500 251° West 380 437 28,900 -1,200 Descending Toronto Center
04:54PM 43.2333 -80.0833 251° West 380 437 28,000 -480 Descending Toronto Center
04:55PM 43.2167 -80.2333 261° West 370 426 28,000 -120 Level Toronto Center
04:56PM 43.1833 -80.3667 251° West 360 414 27,800 -960 Descending Toronto Center
04:57PM 43.1667 -80.5000 260° West 370 426 26,100 -1,560 Descending Toronto Center
04:58PM 43.1333 -80.6333 251° West 370 426 24,700 -1,500 Descending Toronto Center
04:59PM 43.1167 -80.7500 259° West 360 414 23,200 -1,500 Descending Toronto Center
05:00PM 43.0667 -80.8833 243° Southwest 360 414 21,700 -1,500 Descending Toronto Center
05:01PM 43.0500 -81.0167 260° West 350 403 20,200 -1,380 Descending Toronto Center
05:02PM 43.0167 -81.1667 253° West 350 403 19,000 -600 Descending Toronto Center
05:03PM 42.9833 -81.2667 246° West 340 391 19,000 -900 Level Toronto Center
05:04PM 42.9667 -81.4167 261° West 340 391 17,300 -1,560 Descending Toronto Center
05:05PM 42.9333 -81.5167 246° West 340 391 15,900 -1,500 Descending Toronto Center
05:06PM 42.9000 -81.6333 249° West 340 391 14,400 -1,560 Descending Toronto Center
05:07PM 42.8667 -81.7667 251° West 340 391 12,800 -1,200 Descending Toronto Center
05:08PM 42.8550 -81.8858 262° West 342 394 12,100 -480 Descending Cleveland Center
05:09PM 42.8244 -82.0014 250° West 342 394 11,900 -360 Descending Cleveland Center
05:10PM 42.7958 -82.1197 252° West 342 394 11,400 -780 Descending Cleveland Center
05:11PM 42.7631 -82.2375 249° West 342 394 10,400 -720 Descending Cleveland Center
05:12PM 42.7342 -82.3583 252° West 342 394 10,000 -420 Descending Cleveland Center
05:13PM 42.6992 -82.4533 243° Southwest 321 369 9,600 -900 Descending Cleveland Center
05:14PM 42.6733 -82.5033 235° Southwest 266 306 8,700 -1,440 Descending Cleveland Center
05:15PM 42.6197 -82.6006 233° Southwest 265 305 7,200 -1,320 Descending Cleveland Center
05:16PM 42.5783 -82.6894 238° Southwest 264 304 5,800 -1,380 Descending Cleveland Center
05:17PM 42.5353 -82.7669 233° Southwest 265 305 4,500 -1,320 Descending Cleveland Center
05:18PM 42.4942 -82.8500 236° Southwest 265 305 3,200 -840 Descending Cleveland Center
05:19PM 42.4450 -82.9072 221° Southwest 220 253 2,900 -660 Descending Cleveland Center
05:20PM 42.3983 -82.9506 214° Southwest 164 189 1,900 -960 Descending Cleveland Center
05:21PM 42.3933 -82.9956 261° West 123 142 1,000 -900 Descending Cleveland Center